sensor_id;sensor_type;location;lat;lon;timestamp;temperature;humidity
77100;SHT31;66602;48.922;2.414;2023-06-24T00:02:16;18.71;73.55
77100;SHT31;66602;48.922;2.414;2023-06-24T00:04:42;18.69;74.10
77100;SHT31;66602;48.922;2.414;2023-06-24T00:07:07;18.66;74.61
77100;SHT31;66602;48.922;2.414;2023-06-24T00:09:33;18.66;74.01
77100;SHT31;66602;48.922;2.414;2023-06-24T00:11:59;18.61;74.19
77100;SHT31;66602;48.922;2.414;2023-06-24T00:14:25;18.55;75.03
77100;SHT31;66602;48.922;2.414;2023-06-24T00:16:55;18.54;74.46
77100;SHT31;66602;48.922;2.414;2023-06-24T00:19:25;18.54;74.66
77100;SHT31;66602;48.922;2.414;2023-06-24T00:21:52;18.49;75.95
77100;SHT31;66602;48.922;2.414;2023-06-24T00:24:19;18.47;75.56
77100;SHT31;66602;48.922;2.414;2023-06-24T00:26:48;18.51;76.30
77100;SHT31;66602;48.922;2.414;2023-06-24T00:29:14;18.49;74.59
77100;SHT31;66602;48.922;2.414;2023-06-24T00:31:40;18.48;75.16
77100;SHT31;66602;48.922;2.414;2023-06-24T00:34:06;18.47;75.86
77100;SHT31;66602;48.922;2.414;2023-06-24T00:36:31;18.44;75.79
77100;SHT31;66602;48.922;2.414;2023-06-24T00:38:57;18.36;75.95
77100;SHT31;66602;48.922;2.414;2023-06-24T00:41:28;18.36;75.97
77100;SHT31;66602;48.922;2.414;2023-06-24T00:43:53;18.30;75.59
77100;SHT31;66602;48.922;2.414;2023-06-24T00:46:19;18.20;75.43
77100;SHT31;66602;48.922;2.414;2023-06-24T00:48:45;18.23;76.40
77100;SHT31;66602;48.922;2.414;2023-06-24T00:51:11;18.18;76.53
77100;SHT31;66602;48.922;2.414;2023-06-24T00:53:37;18.14;76.02
77100;SHT31;66602;48.922;2.414;2023-06-24T00:56:04;18.07;76.53
77100;SHT31;66602;48.922;2.414;2023-06-24T00:58:31;17.97;76.49
77100;SHT31;66602;48.922;2.414;2023-06-24T01:00:58;17.97;77.83
77100;SHT31;66602;48.922;2.414;2023-06-24T01:03:25;17.94;79.14
77100;SHT31;66602;48.922;2.414;2023-06-24T01:05:50;17.89;77.45
77100;SHT31;66602;48.922;2.414;2023-06-24T01:08:17;17.87;78.78
77100;SHT31;66602;48.922;2.414;2023-06-24T01:10:44;17.90;79.53
77100;SHT31;66602;48.922;2.414;2023-06-24T01:13:10;17.89;77.84
77100;SHT31;66602;48.922;2.414;2023-06-24T01:15:36;17.89;78.44
77100;SHT31;66602;48.922;2.414;2023-06-24T01:18:11;17.89;77.84
77100;SHT31;66602;48.922;2.414;2023-06-24T01:21:31;17.85;77.37
77100;SHT31;66602;48.922;2.414;2023-06-24T01:24:06;17.75;77.57
77100;SHT31;66602;48.922;2.414;2023-06-24T01:44:00;17.43;79.02
77100;SHT31;66602;48.922;2.414;2023-06-24T01:46:29;17.46;80.03
77100;SHT31;66602;48.922;2.414;2023-06-24T01:49:01;17.45;79.55
77100;SHT31;66602;48.922;2.414;2023-06-24T01:51:29;17.45;78.80
77100;SHT31;66602;48.922;2.414;2023-06-24T01:54:00;17.46;79.32
77100;SHT31;66602;48.922;2.414;2023-06-24T01:56:28;17.40;79.43
77100;SHT31;66602;48.922;2.414;2023-06-24T01:58:55;17.38;80.23
77100;SHT31;66602;48.922;2.414;2023-06-24T02:01:22;17.43;80.48
77100;SHT31;66602;48.922;2.414;2023-06-24T02:03:49;17.45;80.99
77100;SHT31;66602;48.922;2.414;2023-06-24T02:06:16;17.38;80.30
77100;SHT31;66602;48.922;2.414;2023-06-24T02:08:43;17.34;81.12
77100;SHT31;66602;48.922;2.414;2023-06-24T02:11:09;17.34;81.03
77100;SHT31;66602;48.922;2.414;2023-06-24T02:13:37;17.25;80.31
77100;SHT31;66602;48.922;2.414;2023-06-24T02:16:06;17.21;80.78
77100;SHT31;66602;48.922;2.414;2023-06-24T02:18:34;17.17;80.56
77100;SHT31;66602;48.922;2.414;2023-06-24T02:21:01;17.10;80.87
77100;SHT31;66602;48.922;2.414;2023-06-24T02:23:28;17.08;80.80
77100;SHT31;66602;48.922;2.414;2023-06-24T02:25:54;17.01;80.72
77100;SHT31;66602;48.922;2.414;2023-06-24T02:28:20;16.95;80.92
77100;SHT31;66602;48.922;2.414;2023-06-24T02:30:47;16.90;81.44
77100;SHT31;66602;48.922;2.414;2023-06-24T02:33:13;16.88;81.32
77100;SHT31;66602;48.922;2.414;2023-06-24T02:35:39;16.85;81.73
77100;SHT31;66602;48.922;2.414;2023-06-24T02:38:07;16.84;81.65
77100;SHT31;66602;48.922;2.414;2023-06-24T02:40:32;16.83;82.15
77100;SHT31;66602;48.922;2.414;2023-06-24T02:42:59;16.81;82.03
77100;SHT31;66602;48.922;2.414;2023-06-24T02:45:24;16.81;82.28
77100;SHT31;66602;48.922;2.414;2023-06-24T02:47:51;16.80;81.88
77100;SHT31;66602;48.922;2.414;2023-06-24T02:50:17;16.77;82.13
77100;SHT31;66602;48.922;2.414;2023-06-24T02:52:44;16.76;82.08
77100;SHT31;66602;48.922;2.414;2023-06-24T02:55:10;16.70;82.10
77100;SHT31;66602;48.922;2.414;2023-06-24T02:57:37;16.67;82.31
77100;SHT31;66602;48.922;2.414;2023-06-24T03:00:03;16.61;82.69
77100;SHT31;66602;48.922;2.414;2023-06-24T03:02:38;16.60;82.80
77100;SHT31;66602;48.922;2.414;2023-06-24T03:05:04;16.59;82.52
77100;SHT31;66602;48.922;2.414;2023-06-24T03:07:31;16.60;82.77
77100;SHT31;66602;48.922;2.414;2023-06-24T03:10:01;16.57;82.84
77100;SHT31;66602;48.922;2.414;2023-06-24T03:12:28;16.53;82.89
77100;SHT31;66602;48.922;2.414;2023-06-24T03:14:54;16.47;83.07
77100;SHT31;66602;48.922;2.414;2023-06-24T03:17:19;16.43;83.22
77100;SHT31;66602;48.922;2.414;2023-06-24T03:19:45;16.39;83.37
77100;SHT31;66602;48.922;2.414;2023-06-24T03:22:10;16.38;83.38
77100;SHT31;66602;48.922;2.414;2023-06-24T03:24:36;16.38;83.43
77100;SHT31;66602;48.922;2.414;2023-06-24T03:27:01;16.30;83.73
77100;SHT31;66602;48.922;2.414;2023-06-24T03:29:27;16.23;84.00
77100;SHT31;66602;48.922;2.414;2023-06-24T03:31:53;16.23;84.26
77100;SHT31;66602;48.922;2.414;2023-06-24T03:34:19;16.20;84.05
77100;SHT31;66602;48.922;2.414;2023-06-24T03:36:44;16.18;84.09
77100;SHT31;66602;48.922;2.414;2023-06-24T03:39:10;16.16;84.38
77100;SHT31;66602;48.922;2.414;2023-06-24T03:41:35;16.19;84.16
77100;SHT31;66602;48.922;2.414;2023-06-24T03:44:01;16.19;84.17
77100;SHT31;66602;48.922;2.414;2023-06-24T03:46:27;16.20;84.30
77100;SHT31;66602;48.922;2.414;2023-06-24T03:48:57;16.16;84.31
77100;SHT31;66602;48.922;2.414;2023-06-24T03:51:23;16.18;84.21
77100;SHT31;66602;48.922;2.414;2023-06-24T03:53:48;16.15;84.40
77100;SHT31;66602;48.922;2.414;2023-06-24T03:56:14;16.10;84.35
77100;SHT31;66602;48.922;2.414;2023-06-24T03:58:40;16.05;84.50
77100;SHT31;66602;48.922;2.414;2023-06-24T04:01:06;16.01;84.67
77100;SHT31;66602;48.922;2.414;2023-06-24T04:03:31;15.99;84.82
77100;SHT31;66602;48.922;2.414;2023-06-24T04:05:57;16.02;84.84
77100;SHT31;66602;48.922;2.414;2023-06-24T04:08:23;16.05;84.95
77100;SHT31;66602;48.922;2.414;2023-06-24T04:10:55;16.06;84.76
77100;SHT31;66602;48.922;2.414;2023-06-24T04:13:20;16.05;84.80
77100;SHT31;66602;48.922;2.414;2023-06-24T04:15:46;16.08;84.99
77100;SHT31;66602;48.922;2.414;2023-06-24T04:18:11;16.09;85.75
77100;SHT31;66602;48.922;2.414;2023-06-24T04:20:36;16.16;84.97
77100;SHT31;66602;48.922;2.414;2023-06-24T04:23:03;16.22;84.90
77100;SHT31;66602;48.922;2.414;2023-06-24T04:25:29;16.22;84.77
77100;SHT31;66602;48.922;2.414;2023-06-24T04:27:55;16.16;84.77
77100;SHT31;66602;48.922;2.414;2023-06-24T04:30:20;16.19;84.68
77100;SHT31;66602;48.922;2.414;2023-06-24T04:32:46;16.26;84.67
77100;SHT31;66602;48.922;2.414;2023-06-24T04:35:11;16.28;84.61
77100;SHT31;66602;48.922;2.414;2023-06-24T04:37:37;16.30;84.31
77100;SHT31;66602;48.922;2.414;2023-06-24T04:40:03;16.33;84.02
77100;SHT31;66602;48.922;2.414;2023-06-24T04:42:28;16.34;84.31
77100;SHT31;66602;48.922;2.414;2023-06-24T04:44:54;16.36;84.18
77100;SHT31;66602;48.922;2.414;2023-06-24T04:47:19;16.39;83.83
77100;SHT31;66602;48.922;2.414;2023-06-24T04:49:44;16.45;83.77
77100;SHT31;66602;48.922;2.414;2023-06-24T04:52:11;16.50;83.72
77100;SHT31;66602;48.922;2.414;2023-06-24T04:54:37;16.46;83.86
77100;SHT31;66602;48.922;2.414;2023-06-24T04:57:08;16.47;83.80
77100;SHT31;66602;48.922;2.414;2023-06-24T04:59:33;16.55;83.56
77100;SHT31;66602;48.922;2.414;2023-06-24T05:01:59;16.64;83.23
77100;SHT31;66602;48.922;2.414;2023-06-24T05:04:24;16.66;83.38
77100;SHT31;66602;48.922;2.414;2023-06-24T05:06:49;16.73;83.15
77100;SHT31;66602;48.922;2.414;2023-06-24T05:09:15;16.80;83.06
77100;SHT31;66602;48.922;2.414;2023-06-24T05:11:41;16.81;83.00
77100;SHT31;66602;48.922;2.414;2023-06-24T05:14:07;16.84;83.14
77100;SHT31;66602;48.922;2.414;2023-06-24T05:16:32;16.85;82.53
77100;SHT31;66602;48.922;2.414;2023-06-24T05:18:58;16.94;82.56
77100;SHT31;66602;48.922;2.414;2023-06-24T05:21:23;17.07;82.69
77100;SHT31;66602;48.922;2.414;2023-06-24T05:23:49;17.10;82.24
77100;SHT31;66602;48.922;2.414;2023-06-24T05:26:14;17.12;81.52
77100;SHT31;66602;48.922;2.414;2023-06-24T05:28:40;17.15;81.86
77100;SHT31;66602;48.922;2.414;2023-06-24T05:31:05;17.21;81.59
77100;SHT31;66602;48.922;2.414;2023-06-24T05:33:31;17.27;81.42
77100;SHT31;66602;48.922;2.414;2023-06-24T05:35:57;17.32;81.05
77100;SHT31;66602;48.922;2.414;2023-06-24T05:38:22;17.36;80.76
77100;SHT31;66602;48.922;2.414;2023-06-24T05:40:48;17.46;80.61
77100;SHT31;66602;48.922;2.414;2023-06-24T05:43:13;17.53;80.06
77100;SHT31;66602;48.922;2.414;2023-06-24T05:45:39;17.62;80.27
77100;SHT31;66602;48.922;2.414;2023-06-24T05:48:04;17.65;79.72
77100;SHT31;66602;48.922;2.414;2023-06-24T05:50:30;17.70;79.04
77100;SHT31;66602;48.922;2.414;2023-06-24T05:52:55;17.77;78.95
77100;SHT31;66602;48.922;2.414;2023-06-24T05:55:21;17.79;78.99
77100;SHT31;66602;48.922;2.414;2023-06-24T05:57:46;17.86;78.78
77100;SHT31;66602;48.922;2.414;2023-06-24T06:00:12;17.93;78.29
77100;SHT31;66602;48.922;2.414;2023-06-24T06:02:38;18.03;77.82
77100;SHT31;66602;48.922;2.414;2023-06-24T06:05:04;18.14;77.39
77100;SHT31;66602;48.922;2.414;2023-06-24T06:07:29;18.31;76.74
77100;SHT31;66602;48.922;2.414;2023-06-24T06:09:55;18.40;76.87
77100;SHT31;66602;48.922;2.414;2023-06-24T06:12:21;18.45;76.05
77100;SHT31;66602;48.922;2.414;2023-06-24T06:14:46;18.52;76.67
77100;SHT31;66602;48.922;2.414;2023-06-24T06:17:13;18.61;76.01
77100;SHT31;66602;48.922;2.414;2023-06-24T06:19:39;18.66;76.58
77100;SHT31;66602;48.922;2.414;2023-06-24T06:22:07;18.72;75.88
77100;SHT31;66602;48.922;2.414;2023-06-24T06:24:33;18.81;74.44
77100;SHT31;66602;48.922;2.414;2023-06-24T06:26:58;18.92;73.89
77100;SHT31;66602;48.922;2.414;2023-06-24T06:29:24;19.03;73.45
77100;SHT31;66602;48.922;2.414;2023-06-24T06:31:50;19.15;73.81
77100;SHT31;66602;48.922;2.414;2023-06-24T06:34:15;19.26;73.09
77100;SHT31;66602;48.922;2.414;2023-06-24T06:36:41;19.33;73.65
77100;SHT31;66602;48.922;2.414;2023-06-24T06:39:06;19.49;72.90
77100;SHT31;66602;48.922;2.414;2023-06-24T06:41:31;19.63;72.02
77100;SHT31;66602;48.922;2.414;2023-06-24T06:43:57;19.77;72.36
77100;SHT31;66602;48.922;2.414;2023-06-24T06:46:22;19.89;70.77
77100;SHT31;66602;48.922;2.414;2023-06-24T06:48:48;20.05;71.49
77100;SHT31;66602;48.922;2.414;2023-06-24T06:51:14;20.21;70.13
77100;SHT31;66602;48.922;2.414;2023-06-24T06:53:39;20.39;69.43
77100;SHT31;66602;48.922;2.414;2023-06-24T06:56:05;20.55;68.40
77100;SHT31;66602;48.922;2.414;2023-06-24T06:58:30;20.97;68.63
77100;SHT31;66602;48.922;2.414;2023-06-24T07:00:56;23.12;61.32
77100;SHT31;66602;48.922;2.414;2023-06-24T07:03:26;26.39;51.84
77100;SHT31;66602;48.922;2.414;2023-06-24T07:05:53;28.59;45.65
77100;SHT31;66602;48.922;2.414;2023-06-24T07:08:18;30.16;41.68
77100;SHT31;66602;48.922;2.414;2023-06-24T07:10:43;31.04;39.05
77100;SHT31;66602;48.922;2.414;2023-06-24T07:13:09;31.72;40.52
77100;SHT31;66602;48.922;2.414;2023-06-24T07:15:35;32.97;36.42
77100;SHT31;66602;48.922;2.414;2023-06-24T07:18:00;34.05;35.93
77100;SHT31;66602;48.922;2.414;2023-06-24T07:20:26;34.81;32.89
77100;SHT31;66602;48.922;2.414;2023-06-24T07:22:51;34.72;35.23
77100;SHT31;66602;48.922;2.414;2023-06-24T07:25:17;34.72;34.20
77100;SHT31;66602;48.922;2.414;2023-06-24T07:27:42;34.76;33.59
77100;SHT31;66602;48.922;2.414;2023-06-24T07:30:08;35.09;31.76
77100;SHT31;66602;48.922;2.414;2023-06-24T07:32:34;35.19;33.58
77100;SHT31;66602;48.922;2.414;2023-06-24T07:34:59;35.25;34.04
77100;SHT31;66602;48.922;2.414;2023-06-24T07:37:24;35.25;33.33
77100;SHT31;66602;48.922;2.414;2023-06-24T07:39:50;35.87;33.35
77100;SHT31;66602;48.922;2.414;2023-06-24T07:42:15;36.43;32.72
77100;SHT31;66602;48.922;2.414;2023-06-24T07:44:48;36.19;31.94
77100;SHT31;66602;48.922;2.414;2023-06-24T07:47:14;36.57;29.72
77100;SHT31;66602;48.922;2.414;2023-06-24T07:49:39;36.11;33.69
77100;SHT31;66602;48.922;2.414;2023-06-24T07:52:05;36.57;32.98
77100;SHT31;66602;48.922;2.414;2023-06-24T07:54:31;36.75;31.47
77100;SHT31;66602;48.922;2.414;2023-06-24T07:56:57;36.97;30.50
77100;SHT31;66602;48.922;2.414;2023-06-24T07:59:22;37.31;32.42
77100;SHT31;66602;48.922;2.414;2023-06-24T08:01:48;37.18;29.71
77100;SHT31;66602;48.922;2.414;2023-06-24T08:04:14;37.08;29.92
77100;SHT31;66602;48.922;2.414;2023-06-24T08:06:40;37.60;29.11
77100;SHT31;66602;48.922;2.414;2023-06-24T08:09:16;38.15;29.27
77100;SHT31;66602;48.922;2.414;2023-06-24T08:11:43;38.26;28.93
77100;SHT31;66602;48.922;2.414;2023-06-24T08:14:08;37.95;27.68
77100;SHT31;66602;48.922;2.414;2023-06-24T08:16:34;38.27;28.37
77100;SHT31;66602;48.922;2.414;2023-06-24T08:18:59;37.75;28.56
77100;SHT31;66602;48.922;2.414;2023-06-24T08:21:25;37.20;27.81
77100;SHT31;66602;48.922;2.414;2023-06-24T08:23:50;37.48;29.73
77100;SHT31;66602;48.922;2.414;2023-06-24T08:26:17;38.16;28.80
77100;SHT31;66602;48.922;2.414;2023-06-24T08:28:42;38.27;28.15
77100;SHT31;66602;48.922;2.414;2023-06-24T08:31:07;38.40;27.83
77100;SHT31;66602;48.922;2.414;2023-06-24T08:33:33;38.35;26.31
77100;SHT31;66602;48.922;2.414;2023-06-24T08:35:59;38.46;30.04
77100;SHT31;66602;48.922;2.414;2023-06-24T08:38:24;38.84;26.38
77100;SHT31;66602;48.922;2.414;2023-06-24T08:40:50;38.60;27.57
77100;SHT31;66602;48.922;2.414;2023-06-24T08:43:16;38.88;28.82
77100;SHT31;66602;48.922;2.414;2023-06-24T08:45:41;38.78;25.50
77100;SHT31;66602;48.922;2.414;2023-06-24T08:48:07;38.71;27.26
77100;SHT31;66602;48.922;2.414;2023-06-24T08:50:36;38.70;26.48
77100;SHT31;66602;48.922;2.414;2023-06-24T08:53:05;38.80;27.38
77100;SHT31;66602;48.922;2.414;2023-06-24T08:55:32;38.52;27.22
77100;SHT31;66602;48.922;2.414;2023-06-24T08:58:02;38.52;24.81
77100;SHT31;66602;48.922;2.414;2023-06-24T09:00:27;38.35;25.36
77100;SHT31;66602;48.922;2.414;2023-06-24T09:03:00;38.57;29.16
77100;SHT31;66602;48.922;2.414;2023-06-24T09:05:25;38.47;29.36
77100;SHT31;66602;48.922;2.414;2023-06-24T09:07:51;38.45;26.78
77100;SHT31;66602;48.922;2.414;2023-06-24T09:10:33;38.77;25.02
77100;SHT31;66602;48.922;2.414;2023-06-24T09:13:02;38.97;30.59
77100;SHT31;66602;48.922;2.414;2023-06-24T09:15:34;38.70;28.93
77100;SHT31;66602;48.922;2.414;2023-06-24T09:18:01;38.70;26.91
77100;SHT31;66602;48.922;2.414;2023-06-24T09:20:27;38.71;29.49
77100;SHT31;66602;48.922;2.414;2023-06-24T09:23:01;38.90;26.22
77100;SHT31;66602;48.922;2.414;2023-06-24T09:25:27;38.29;26.20
77100;SHT31;66602;48.922;2.414;2023-06-24T09:27:53;37.86;27.28
77100;SHT31;66602;48.922;2.414;2023-06-24T09:30:22;37.58;27.94
77100;SHT31;66602;48.922;2.414;2023-06-24T09:32:49;37.39;30.88
77100;SHT31;66602;48.922;2.414;2023-06-24T09:35:19;37.53;30.53
77100;SHT31;66602;48.922;2.414;2023-06-24T09:37:53;37.48;32.05
77100;SHT31;66602;48.922;2.414;2023-06-24T09:40:19;37.44;28.69
77100;SHT31;66602;48.922;2.414;2023-06-24T09:45:25;37.88;29.68
77100;SHT31;66602;48.922;2.414;2023-06-24T09:47:52;37.92;30.00
77100;SHT31;66602;48.922;2.414;2023-06-24T09:50:18;38.01;29.01
77100;SHT31;66602;48.922;2.414;2023-06-24T09:52:44;37.93;27.16
77100;SHT31;66602;48.922;2.414;2023-06-24T09:55:13;37.49;30.78
77100;SHT31;66602;48.922;2.414;2023-06-24T09:57:39;37.23;28.39
77100;SHT31;66602;48.922;2.414;2023-06-24T10:00:06;36.68;30.05
77100;SHT31;66602;48.922;2.414;2023-06-24T10:02:33;36.83;30.35
77100;SHT31;66602;48.922;2.414;2023-06-24T10:04:59;37.04;31.93
77100;SHT31;66602;48.922;2.414;2023-06-24T10:07:26;37.34;27.72
77100;SHT31;66602;48.922;2.414;2023-06-24T10:09:53;37.69;30.78
77100;SHT31;66602;48.922;2.414;2023-06-24T10:12:19;37.78;31.34
77100;SHT31;66602;48.922;2.414;2023-06-24T10:14:45;38.22;30.83
77100;SHT31;66602;48.922;2.414;2023-06-24T10:17:11;38.35;29.48
77100;SHT31;66602;48.922;2.414;2023-06-24T10:19:38;38.32;27.63
77100;SHT31;66602;48.922;2.414;2023-06-24T10:22:07;38.25;27.47
77100;SHT31;66602;48.922;2.414;2023-06-24T10:24:36;38.09;27.06
77100;SHT31;66602;48.922;2.414;2023-06-24T10:27:08;38.20;26.94
77100;SHT31;66602;48.922;2.414;2023-06-24T10:29:37;37.92;27.30
77100;SHT31;66602;48.922;2.414;2023-06-24T10:32:09;37.38;28.41
77100;SHT31;66602;48.922;2.414;2023-06-24T10:37:25;37.17;29.52
77100;SHT31;66602;48.922;2.414;2023-06-24T10:39:57;36.78;31.32
77100;SHT31;66602;48.922;2.414;2023-06-24T10:44:50;36.89;32.25
77100;SHT31;66602;48.922;2.414;2023-06-24T10:47:16;36.66;29.78
77100;SHT31;66602;48.922;2.414;2023-06-24T10:49:42;36.24;31.75
77100;SHT31;66602;48.922;2.414;2023-06-24T10:52:11;36.56;32.97
77100;SHT31;66602;48.922;2.414;2023-06-24T10:54:38;37.00;29.65
77100;SHT31;66602;48.922;2.414;2023-06-24T10:57:04;37.03;29.12
77100;SHT31;66602;48.922;2.414;2023-06-24T11:02:05;37.13;28.66
77100;SHT31;66602;48.922;2.414;2023-06-24T11:04:30;36.89;30.24
77100;SHT31;66602;48.922;2.414;2023-06-24T11:07:00;36.49;29.46
77100;SHT31;66602;48.922;2.414;2023-06-24T11:09:26;36.04;30.08
77100;SHT31;66602;48.922;2.414;2023-06-24T11:11:52;35.76;30.71
77100;SHT31;66602;48.922;2.414;2023-06-24T11:14:19;35.80;31.64
77100;SHT31;66602;48.922;2.414;2023-06-24T11:16:45;35.87;30.41
77100;SHT31;66602;48.922;2.414;2023-06-24T11:19:10;35.65;31.15
77100;SHT31;66602;48.922;2.414;2023-06-24T11:21:36;35.44;32.53
77100;SHT31;66602;48.922;2.414;2023-06-24T11:24:05;35.63;34.92
77100;SHT31;66602;48.922;2.414;2023-06-24T11:26:32;35.91;32.38
77100;SHT31;66602;48.922;2.414;2023-06-24T11:28:57;35.82;31.47
77100;SHT31;66602;48.922;2.414;2023-06-24T11:31:25;35.98;31.85
77100;SHT31;66602;48.922;2.414;2023-06-24T11:33:51;36.09;31.37
77100;SHT31;66602;48.922;2.414;2023-06-24T11:36:20;36.45;32.02
77100;SHT31;66602;48.922;2.414;2023-06-24T11:38:46;36.35;33.46
77100;SHT31;66602;48.922;2.414;2023-06-24T11:41:12;33.90;33.23
77100;SHT31;66602;48.922;2.414;2023-06-24T11:43:44;33.18;36.56
77100;SHT31;66602;48.922;2.414;2023-06-24T11:46:10;33.98;36.45
77100;SHT31;66602;48.922;2.414;2023-06-24T11:48:40;34.95;37.09
77100;SHT31;66602;48.922;2.414;2023-06-24T11:51:15;35.47;34.33
77100;SHT31;66602;48.922;2.414;2023-06-24T11:53:41;36.31;30.02
77100;SHT31;66602;48.922;2.414;2023-06-24T11:56:08;36.57;28.89
77100;SHT31;66602;48.922;2.414;2023-06-24T11:58:34;36.46;30.52
77100;SHT31;66602;48.922;2.414;2023-06-24T12:01:01;36.66;29.80
77100;SHT31;66602;48.922;2.414;2023-06-24T12:03:28;36.28;31.33
77100;SHT31;66602;48.922;2.414;2023-06-24T12:05:54;36.33;30.88
77100;SHT31;66602;48.922;2.414;2023-06-24T12:08:20;35.61;30.66
77100;SHT31;66602;48.922;2.414;2023-06-24T12:10:48;35.82;30.93
77100;SHT31;66602;48.922;2.414;2023-06-24T12:13:14;36.55;32.73
77100;SHT31;66602;48.922;2.414;2023-06-24T12:15:39;37.04;29.26
77100;SHT31;66602;48.922;2.414;2023-06-24T12:18:05;37.39;27.15
77100;SHT31;66602;48.922;2.414;2023-06-24T12:20:30;37.90;28.27
77100;SHT31;66602;48.922;2.414;2023-06-24T12:22:57;38.16;28.61
77100;SHT31;66602;48.922;2.414;2023-06-24T12:25:23;37.68;29.85
77100;SHT31;66602;48.922;2.414;2023-06-24T12:27:49;37.93;32.64
77100;SHT31;66602;48.922;2.414;2023-06-24T12:30:15;37.92;29.69
77100;SHT31;66602;48.922;2.414;2023-06-24T12:32:42;38.43;27.50
77100;SHT31;66602;48.922;2.414;2023-06-24T12:35:08;38.50;30.67
77100;SHT31;66602;48.922;2.414;2023-06-24T12:37:37;37.75;29.64
77100;SHT31;66602;48.922;2.414;2023-06-24T12:40:05;38.02;28.23
77100;SHT31;66602;48.922;2.414;2023-06-24T12:42:31;38.17;31.18
77100;SHT31;66602;48.922;2.414;2023-06-24T12:44:56;38.41;29.93
77100;SHT31;66602;48.922;2.414;2023-06-24T12:47:22;38.64;26.44
77100;SHT31;66602;48.922;2.414;2023-06-24T12:49:49;38.71;29.51
77100;SHT31;66602;48.922;2.414;2023-06-24T12:52:15;38.78;28.40
77100;SHT31;66602;48.922;2.414;2023-06-24T12:54:41;37.51;29.42
77100;SHT31;66602;48.922;2.414;2023-06-24T12:57:06;36.93;31.62
77100;SHT31;66602;48.922;2.414;2023-06-24T12:59:32;36.57;30.26
77100;SHT31;66602;48.922;2.414;2023-06-24T13:01:57;35.63;31.30
77100;SHT31;66602;48.922;2.414;2023-06-24T13:04:23;33.73;34.90
77100;SHT31;66602;48.922;2.414;2023-06-24T13:06:53;32.99;35.17
77100;SHT31;66602;48.922;2.414;2023-06-24T13:09:18;31.53;37.17
77100;SHT31;66602;48.922;2.414;2023-06-24T13:11:44;30.42;38.76
77100;SHT31;66602;48.922;2.414;2023-06-24T13:14:09;30.46;39.46
77100;SHT31;66602;48.922;2.414;2023-06-24T13:16:38;31.73;36.47
77100;SHT31;66602;48.922;2.414;2023-06-24T13:19:04;32.95;35.38
77100;SHT31;66602;48.922;2.414;2023-06-24T13:21:30;33.96;34.43
77100;SHT31;66602;48.922;2.414;2023-06-24T13:23:55;34.45;35.33
77100;SHT31;66602;48.922;2.414;2023-06-24T13:26:21;34.86;33.46
77100;SHT31;66602;48.922;2.414;2023-06-24T13:28:46;35.34;33.31
77100;SHT31;66602;48.922;2.414;2023-06-24T13:31:14;35.87;32.26
77100;SHT31;66602;48.922;2.414;2023-06-24T13:33:39;35.92;32.33
77100;SHT31;66602;48.922;2.414;2023-06-24T13:36:07;35.47;32.19
77100;SHT31;66602;48.922;2.414;2023-06-24T13:38:32;35.61;32.83
77100;SHT31;66602;48.922;2.414;2023-06-24T13:40:58;35.44;32.50
77100;SHT31;66602;48.922;2.414;2023-06-24T13:43:23;34.72;34.15
77100;SHT31;66602;48.922;2.414;2023-06-24T13:45:50;34.89;34.15
77100;SHT31;66602;48.922;2.414;2023-06-24T13:48:16;34.41;34.24
77100;SHT31;66602;48.922;2.414;2023-06-24T13:50:41;34.81;35.66
77100;SHT31;66602;48.922;2.414;2023-06-24T13:53:07;35.25;37.97
77100;SHT31;66602;48.922;2.414;2023-06-24T13:55:32;35.34;31.37
77100;SHT31;66602;48.922;2.414;2023-06-24T13:57:58;35.25;31.61
77100;SHT31;66602;48.922;2.414;2023-06-24T14:00:24;35.43;31.33
77100;SHT31;66602;48.922;2.414;2023-06-24T14:02:49;35.42;33.36
77100;SHT31;66602;48.922;2.414;2023-06-24T14:05:15;35.34;35.37
77100;SHT31;66602;48.922;2.414;2023-06-24T14:07:40;35.46;31.45
77100;SHT31;66602;48.922;2.414;2023-06-24T14:10:06;35.87;31.98
77100;SHT31;66602;48.922;2.414;2023-06-24T14:12:32;36.18;31.18
77100;SHT31;66602;48.922;2.414;2023-06-24T14:14:57;36.14;31.76
77100;SHT31;66602;48.922;2.414;2023-06-24T14:17:24;36.06;31.68
77100;SHT31;66602;48.922;2.414;2023-06-24T14:19:51;35.91;30.70
77100;SHT31;66602;48.922;2.414;2023-06-24T14:22:16;35.17;31.48
77100;SHT31;66602;48.922;2.414;2023-06-24T14:24:43;35.07;36.23
77100;SHT31;66602;48.922;2.414;2023-06-24T14:27:08;35.30;32.80
77100;SHT31;66602;48.922;2.414;2023-06-24T14:29:34;35.63;31.74
77100;SHT31;66602;48.922;2.414;2023-06-24T14:31:59;35.71;34.18
77100;SHT31;66602;48.922;2.414;2023-06-24T14:34:25;35.70;31.82
77100;SHT31;66602;48.922;2.414;2023-06-24T14:36:50;35.88;32.96
77100;SHT31;66602;48.922;2.414;2023-06-24T14:39:16;35.95;33.27
77100;SHT31;66602;48.922;2.414;2023-06-24T14:41:42;35.91;31.27
77100;SHT31;66602;48.922;2.414;2023-06-24T14:44:08;35.57;31.99
77100;SHT31;66602;48.922;2.414;2023-06-24T14:46:33;35.13;32.44
77100;SHT31;66602;48.922;2.414;2023-06-24T14:48:59;34.96;31.64
77100;SHT31;66602;48.922;2.414;2023-06-24T14:51:24;35.04;34.75
77100;SHT31;66602;48.922;2.414;2023-06-24T14:53:50;34.98;32.66
77100;SHT31;66602;48.922;2.414;2023-06-24T14:56:16;34.83;33.91
77100;SHT31;66602;48.922;2.414;2023-06-24T14:58:41;34.64;32.03
77100;SHT31;66602;48.922;2.414;2023-06-24T15:01:07;34.27;33.26
77100;SHT31;66602;48.922;2.414;2023-06-24T15:03:32;34.17;31.92
77100;SHT31;66602;48.922;2.414;2023-06-24T15:05:58;34.24;33.71
77100;SHT31;66602;48.922;2.414;2023-06-24T15:08:23;34.31;31.44
77100;SHT31;66602;48.922;2.414;2023-06-24T15:10:50;34.27;34.52
77100;SHT31;66602;48.922;2.414;2023-06-24T15:13:16;34.28;33.72
77100;SHT31;66602;48.922;2.414;2023-06-24T15:15:41;34.31;33.27
77100;SHT31;66602;48.922;2.414;2023-06-24T15:18:07;34.43;34.97
77100;SHT31;66602;48.922;2.414;2023-06-24T15:20:33;34.45;32.76
77100;SHT31;66602;48.922;2.414;2023-06-24T15:22:59;34.56;35.64
77100;SHT31;66602;48.922;2.414;2023-06-24T15:25:25;34.72;32.37
77100;SHT31;66602;48.922;2.414;2023-06-24T15:27:51;34.52;32.86
77100;SHT31;66602;48.922;2.414;2023-06-24T15:30:17;34.23;32.60
77100;SHT31;66602;48.922;2.414;2023-06-24T15:32:42;33.98;35.22
77100;SHT31;66602;48.922;2.414;2023-06-24T15:35:10;33.90;33.42
77100;SHT31;66602;48.922;2.414;2023-06-24T15:37:36;33.70;34.56
77100;SHT31;66602;48.922;2.414;2023-06-24T15:40:01;33.59;33.24
77100;SHT31;66602;48.922;2.414;2023-06-24T15:42:27;33.49;34.59
77100;SHT31;66602;48.922;2.414;2023-06-24T15:44:52;33.42;34.65
77100;SHT31;66602;48.922;2.414;2023-06-24T15:47:17;33.39;35.21
77100;SHT31;66602;48.922;2.414;2023-06-24T15:49:43;33.25;35.10
77100;SHT31;66602;48.922;2.414;2023-06-24T15:52:08;33.14;36.41
77100;SHT31;66602;48.922;2.414;2023-06-24T15:54:34;33.08;34.53